createdAt,value
2022-10-15T00:02:35.854Z,34.67
2022-10-15T00:05:39.204Z,40.13
2022-10-15T00:08:42.254Z,39.30
2022-10-15T00:11:44.539Z,34.38
2022-10-15T00:14:46.832Z,40.10
2022-10-15T00:17:49.193Z,33.67
2022-10-15T00:20:51.514Z,37.33
2022-10-15T00:23:53.831Z,34.15
2022-10-15T00:26:56.105Z,34.35
2022-10-15T00:30:00.498Z,35.03
2022-10-15T00:33:02.848Z,32.50
2022-10-15T00:36:15.004Z,31.88
2022-10-15T00:39:17.676Z,33.00
2022-10-15T00:42:20.167Z,37.97
2022-10-15T00:45:22.761Z,35.20
2022-10-15T00:48:25.178Z,31.60
2022-10-15T00:51:31.880Z,35.00
2022-10-15T00:54:37.741Z,39.90
2022-10-15T00:57:40.483Z,38.90
2022-10-15T01:00:44.381Z,34.63
2022-10-15T01:03:46.801Z,40.95
2022-10-15T01:06:49.078Z,37.47
2022-10-15T01:09:51.489Z,37.92
2022-10-15T01:13:13.576Z,37.92
2022-10-15T01:16:24.310Z,35.77
2022-10-15T01:19:57.155Z,39.40
2022-10-15T01:23:25.136Z,36.53
2022-10-15T01:26:58.162Z,39.78
2022-10-15T01:30:19.909Z,36.42
2022-10-15T01:33:43.010Z,35.47
2022-10-15T01:37:13.046Z,35.33
2022-10-15T01:40:22.416Z,38.53
2022-10-15T01:43:36.037Z,34.42
2022-10-15T01:47:05.729Z,33.80
2022-10-15T01:50:08.813Z,34.27
2022-10-15T01:53:12.106Z,36.45
2022-10-15T01:56:18.663Z,33.05
2022-10-15T01:59:27.841Z,32.80
2022-10-15T02:02:30.126Z,32.00
2022-10-15T02:05:36.118Z,29.83
2022-10-15T02:08:50.004Z,34.75
2022-10-15T02:12:31.345Z,31.77
2022-10-15T02:15:40.219Z,34.92
2022-10-15T02:18:51.043Z,34.80
2022-10-15T02:22:09.062Z,34.73
2022-10-15T02:25:16.017Z,32.65
2022-10-15T02:28:22.202Z,34.25
2022-10-15T02:31:26.837Z,34.15
2022-10-15T02:34:31.019Z,38.47
2022-10-15T02:37:35.152Z,35.73
2022-10-15T02:40:37.740Z,39.75
2022-10-15T02:43:41.317Z,32.10
2022-10-15T02:46:43.651Z,33.08
2022-10-15T02:49:47.312Z,35.40
2022-10-15T02:52:49.702Z,30.33
2022-10-15T02:55:54.732Z,33.50
2022-10-15T02:58:57.761Z,30.67
2022-10-15T03:02:00.584Z,38.33
2022-10-15T03:05:04.131Z,32.58
2022-10-15T03:08:06.460Z,35.53
2022-10-15T03:11:09.431Z,30.80
2022-10-15T03:14:12.712Z,33.67
2022-10-15T03:17:15.353Z,32.47
2022-10-15T03:20:18.351Z,33.75
2022-10-15T03:23:20.828Z,36.73
2022-10-15T03:26:23.345Z,36.88
2022-10-15T03:29:25.967Z,34.88
2022-10-15T03:32:36.263Z,32.65
2022-10-15T03:35:40.980Z,39.30
2022-10-15T03:38:44.289Z,35.60
2022-10-15T03:41:49.355Z,34.85
2022-10-15T03:44:58.329Z,32.75
2022-10-15T03:48:00.819Z,30.95
2022-10-15T03:51:07.034Z,31.63
2022-10-15T03:54:09.655Z,35.60
2022-10-15T03:57:19.641Z,35.35
2022-10-15T04:00:28.452Z,32.22
2022-10-15T04:03:34.595Z,33.50
2022-10-15T04:06:37.078Z,36.03
2022-10-15T04:09:43.386Z,26.80
2022-10-15T04:12:58.322Z,32.25
2022-10-15T04:16:04.837Z,30.60
2022-10-15T04:19:10.196Z,33.17
2022-10-15T04:22:14.394Z,27.67
2022-10-15T04:25:24.320Z,29.47
2022-10-15T04:28:27.743Z,31.63
2022-10-15T04:31:30.037Z,34.08
2022-10-15T04:34:33.519Z,31.23
2022-10-15T04:37:36.311Z,41.80
2022-10-15T04:40:39.400Z,28.60
2022-10-15T04:43:41.891Z,31.33
2022-10-15T04:46:46.096Z,29.52
2022-10-15T04:50:02.651Z,37.53
2022-10-15T04:53:23.679Z,30.33
2022-10-15T04:56:28.602Z,35.50
2022-10-15T04:59:31.302Z,30.17
2022-10-15T05:02:53.534Z,28.08
2022-10-15T05:06:11.058Z,27.50
2022-10-15T05:09:14.462Z,27.75
2022-10-15T05:12:21.792Z,29.80
2022-10-15T05:15:26.140Z,32.50
2022-10-15T05:18:28.948Z,26.35
2022-10-15T05:21:32.430Z,29.40
2022-10-15T05:24:38.181Z,30.88
2022-10-15T05:27:48.204Z,30.63
2022-10-15T05:30:50.573Z,30.67
2022-10-15T05:33:53.971Z,31.35
2022-10-15T05:37:06.756Z,37.05
2022-10-15T05:40:09.445Z,48.30
2022-10-15T05:43:11.839Z,66.33
2022-10-15T05:46:14.807Z,102.70
2022-10-15T05:49:19.214Z,79.65
2022-10-15T05:52:36.268Z,49.40
2022-10-15T05:55:46.940Z,33.92
2022-10-15T05:58:49.677Z,32.40
2022-10-15T06:01:51.916Z,42.65
2022-10-15T06:04:54.243Z,31.63
2022-10-15T06:07:56.789Z,26.95
2022-10-15T06:11:08.550Z,26.80
2022-10-15T06:14:11.854Z,28.77
2022-10-15T06:17:14.168Z,29.13
2022-10-15T06:20:17.667Z,31.08
2022-10-15T06:23:20.402Z,33.15
2022-10-15T06:26:23.190Z,32.78
2022-10-15T06:29:26.021Z,32.63
2022-10-15T06:32:30.135Z,23.88
2022-10-15T06:35:35.329Z,24.67
2022-10-15T06:38:39.494Z,25.88
2022-10-15T06:41:41.824Z,23.92
2022-10-15T06:44:44.133Z,28.00
2022-10-15T06:47:46.383Z,22.55
2022-10-15T06:50:48.910Z,26.25
2022-10-15T06:53:51.262Z,26.45
2022-10-15T06:56:53.493Z,27.20
2022-10-15T06:59:55.932Z,25.63
2022-10-15T07:03:03.946Z,24.17
2022-10-15T07:06:08.237Z,25.85
2022-10-15T07:09:10.543Z,28.98
2022-10-15T07:12:12.940Z,20.80
2022-10-15T07:15:15.573Z,24.10
2022-10-15T07:18:17.843Z,21.27
2022-10-15T07:21:20.093Z,19.63
2022-10-15T07:24:22.389Z,22.35
2022-10-15T07:27:24.800Z,20.55
2022-10-15T07:30:27.967Z,23.03
2022-10-15T07:33:30.816Z,22.10
2022-10-15T07:36:34.650Z,20.80
2022-10-15T07:39:40.692Z,22.50
2022-10-15T07:42:44.093Z,20.35
2022-10-15T07:45:50.154Z,24.73
2022-10-15T07:48:52.608Z,18.63
2022-10-15T07:51:54.856Z,24.30
2022-10-15T07:54:57.276Z,23.63
2022-10-15T07:57:59.728Z,18.42
2022-10-15T08:01:04.003Z,18.30
2022-10-15T08:04:06.266Z,21.55
2022-10-15T08:07:11.042Z,17.27
2022-10-15T08:10:13.728Z,15.95
2022-10-15T08:13:15.931Z,21.30
2022-10-15T08:16:20.320Z,18.00
2022-10-15T08:19:33.192Z,14.98
2022-10-15T08:22:35.469Z,15.40
2022-10-15T08:25:37.802Z,18.52
2022-10-15T08:28:40.289Z,16.48
2022-10-15T08:31:42.595Z,15.17
2022-10-15T08:34:44.858Z,16.05
2022-10-15T08:37:47.150Z,13.82
2022-10-15T08:40:50.424Z,14.25
2022-10-15T08:43:52.691Z,15.23
2022-10-15T08:47:03.396Z,19.57
2022-10-15T08:50:42.518Z,10.60
2022-10-15T08:53:49.699Z,15.30
2022-10-15T08:56:55.508Z,11.80
2022-10-15T09:00:03.959Z,26.77
2022-10-15T09:03:18.525Z,11.30
2022-10-15T09:06:30.340Z,16.83
2022-10-15T09:09:40.941Z,10.75
2022-10-15T09:12:58.858Z,14.30
2022-10-15T09:16:12.706Z,14.93
2022-10-15T09:19:21.515Z,11.47
2022-10-15T09:22:28.062Z,13.68
2022-10-15T09:25:36.373Z,13.77
2022-10-15T09:28:50.008Z,11.32
2022-10-15T09:32:05.913Z,13.18
2022-10-15T09:35:15.358Z,17.97
2022-10-15T09:38:29.808Z,9.80
2022-10-15T09:41:43.209Z,13.65
2022-10-15T09:44:47.017Z,20.33
2022-10-15T09:47:49.315Z,13.48
2022-10-15T09:50:59.006Z,15.13
2022-10-15T09:54:19.901Z,11.43
2022-10-15T09:57:25.508Z,12.25
2022-10-15T10:00:47.762Z,15.27
2022-10-15T10:03:55.434Z,10.90
2022-10-15T10:07:00.811Z,12.70
2022-10-15T10:10:06.179Z,11.55
2022-10-15T10:13:23.182Z,14.30
2022-10-15T10:16:26.504Z,11.35
2022-10-15T10:19:32.528Z,9.35
2022-10-15T10:22:51.353Z,9.63
2022-10-15T10:25:56.970Z,10.75
2022-10-15T10:29:05.087Z,14.95
2022-10-15T10:32:23.409Z,11.68
2022-10-15T10:35:29.602Z,10.10
2022-10-15T10:38:34.375Z,10.77
2022-10-15T10:41:49.838Z,7.57
2022-10-15T10:44:53.305Z,8.48
2022-10-15T10:47:55.627Z,9.95
2022-10-15T10:51:19.900Z,12.05
2022-10-15T10:54:29.209Z,9.23
2022-10-15T10:57:40.780Z,13.85
2022-10-15T11:00:48.657Z,10.43
2022-10-15T11:03:51.476Z,10.40
2022-10-15T11:07:12.559Z,7.82
2022-10-15T11:10:47.203Z,15.93
2022-10-15T11:14:08.746Z,10.95
2022-10-15T11:17:39.486Z,9.38
2022-10-15T11:21:07.303Z,7.60
2022-10-15T11:25:05.925Z,10.43
2022-10-15T11:28:25.774Z,10.57
2022-10-15T11:32:01.802Z,8.13
2022-10-15T11:35:41.026Z,7.63
2022-10-15T11:39:18.857Z,9.70
2022-10-15T11:42:37.692Z,13.93
2022-10-15T11:46:03.298Z,6.80
2022-10-15T11:49:23.917Z,7.15
2022-10-15T11:52:48.050Z,5.97
2022-10-15T11:55:54.585Z,5.78
2022-10-15T11:59:01.150Z,6.22
2022-10-15T12:02:15.691Z,8.83
2022-10-15T12:05:21.635Z,11.80
2022-10-15T12:08:30.583Z,5.90
2022-10-15T12:11:35.550Z,4.47
2022-10-15T12:14:51.257Z,5.85
2022-10-15T12:18:43.881Z,6.40
2022-10-15T12:21:55.146Z,8.55
2022-10-15T12:24:58.892Z,5.18
2022-10-15T12:28:12.597Z,8.38
2022-10-15T12:31:15.445Z,7.95
2022-10-15T12:34:39.936Z,10.87
2022-10-15T12:37:44.236Z,8.95
2022-10-15T12:40:47.229Z,9.65
2022-10-15T12:44:05.677Z,6.13
2022-10-15T12:47:10.594Z,7.22
2022-10-15T12:50:24.751Z,5.03
2022-10-15T12:53:29.850Z,12.13
2022-10-15T12:56:42.759Z,7.30
2022-10-15T12:59:45.322Z,7.35
2022-10-15T13:02:47.923Z,6.15
2022-10-15T13:05:54.222Z,4.93
2022-10-15T13:09:12.438Z,5.95
2022-10-15T13:12:27.472Z,10.43
2022-10-15T13:15:31.179Z,5.97
2022-10-15T13:18:33.676Z,6.07
2022-10-15T13:21:56.406Z,5.30
2022-10-15T13:25:00.658Z,8.05
2022-10-15T13:28:32.884Z,6.82
2022-10-15T13:31:40.626Z,11.55
2022-10-15T13:34:42.934Z,7.28
2022-10-15T13:37:47.003Z,6.77
2022-10-15T13:40:51.247Z,4.95
2022-10-15T13:43:58.597Z,6.05
2022-10-15T13:47:01.014Z,6.38
2022-10-15T13:50:24.586Z,5.72
2022-10-15T13:53:30.589Z,5.97
2022-10-15T13:56:33.064Z,8.75
2022-10-15T13:59:35.395Z,9.73
2022-10-15T14:02:38.089Z,5.78
2022-10-15T14:05:40.365Z,11.23
2022-10-15T14:08:42.728Z,7.60
2022-10-15T14:11:45.435Z,11.60
2022-10-15T14:14:48.193Z,5.35
2022-10-15T14:17:51.758Z,6.18
2022-10-15T14:20:54.384Z,5.22
2022-10-15T14:24:13.157Z,10.50
2022-10-15T14:27:18.066Z,11.02
2022-10-15T14:30:33.004Z,6.53
2022-10-15T14:33:38.362Z,13.18
2022-10-15T14:36:42.518Z,6.68
2022-10-15T14:39:47.982Z,5.97
2022-10-15T14:43:17.405Z,15.45
2022-10-15T14:46:20.021Z,10.43
2022-10-15T14:49:34.564Z,7.70
2022-10-15T14:52:37.425Z,9.10
2022-10-15T14:55:43.449Z,8.00
2022-10-15T14:58:52.492Z,10.93
2022-10-15T15:02:01.617Z,16.00
2022-10-15T15:05:11.418Z,13.40
2022-10-15T15:08:14.128Z,9.50
2022-10-15T15:11:24.555Z,8.93
2022-10-15T15:14:26.882Z,8.20
2022-10-15T15:17:30.867Z,8.65
2022-10-15T15:20:33.176Z,18.40
2022-10-15T15:23:35.549Z,8.70
2022-10-15T15:26:37.775Z,11.23
2022-10-15T15:29:40.137Z,8.65
2022-10-15T15:32:42.476Z,8.52
2022-10-15T15:35:51.566Z,8.45
2022-10-15T15:38:58.692Z,8.93
2022-10-15T15:42:00.958Z,10.03
2022-10-15T15:45:03.817Z,8.60
2022-10-15T15:48:08.155Z,10.55
2022-10-15T15:51:32.253Z,10.45
2022-10-15T15:54:34.823Z,14.00
2022-10-15T15:57:37.193Z,9.40
2022-10-15T16:00:39.577Z,12.20
2022-10-15T16:03:41.910Z,9.48
2022-10-15T16:06:44.365Z,9.75
2022-10-15T16:09:46.660Z,11.57
2022-10-15T16:12:48.964Z,9.90
2022-10-15T16:15:51.223Z,11.80
2022-10-15T16:18:53.549Z,10.95
2022-10-15T16:21:55.801Z,11.63
2022-10-15T16:24:58.039Z,18.25
2022-10-15T16:28:02.120Z,14.53
2022-10-15T16:31:18.470Z,11.43
2022-10-15T16:34:20.771Z,15.32
2022-10-15T16:37:23.412Z,11.50
2022-10-15T16:40:25.997Z,11.75
2022-10-15T16:43:28.286Z,10.63
2022-10-15T16:46:30.739Z,13.27
2022-10-15T16:49:33.060Z,12.07
2022-10-15T16:52:35.585Z,9.73
2022-10-15T16:55:37.903Z,17.92
2022-10-15T16:58:40.336Z,14.00
2022-10-15T17:01:42.720Z,9.50
2022-10-15T17:04:45.239Z,9.93
2022-10-15T17:07:47.615Z,8.88
2022-10-15T17:10:49.853Z,13.90
2022-10-15T17:13:53.847Z,11.07
2022-10-15T17:16:56.258Z,10.57
2022-10-15T17:19:58.624Z,14.70
2022-10-15T17:23:01.073Z,10.77
2022-10-15T17:26:12.638Z,11.65
2022-10-15T17:29:20.591Z,12.63
2022-10-15T17:32:23.477Z,8.65
2022-10-15T17:35:25.946Z,14.73
2022-10-15T17:38:28.321Z,16.10
2022-10-15T17:41:31.094Z,12.65
2022-10-15T17:44:33.309Z,10.27
2022-10-15T17:47:36.003Z,9.88
2022-10-15T17:50:44.463Z,10.35
2022-10-15T17:53:50.834Z,14.85
2022-10-15T17:56:53.170Z,13.82
2022-10-15T17:59:55.561Z,13.77
2022-10-15T18:02:57.992Z,11.65
2022-10-15T18:06:13.303Z,13.27
2022-10-15T18:09:15.543Z,16.23
2022-10-15T18:12:17.780Z,14.55
2022-10-15T18:15:20.030Z,13.40
2022-10-15T18:18:22.335Z,18.33
2022-10-15T18:21:25.317Z,13.95
2022-10-15T18:24:27.605Z,14.45
2022-10-15T18:27:29.860Z,17.13
2022-10-15T18:30:32.148Z,13.40
2022-10-15T18:33:39.875Z,15.45
2022-10-15T18:36:43.823Z,14.45
2022-10-15T18:39:46.209Z,14.45
2022-10-15T18:42:48.729Z,16.38
2022-10-15T18:45:55.598Z,12.00
2022-10-15T18:48:58.478Z,12.00
2022-10-15T18:52:10.646Z,16.60
2022-10-15T18:55:23.841Z,11.88
2022-10-15T18:58:26.122Z,13.25
2022-10-15T19:01:36.542Z,13.50
2022-10-15T19:04:39.118Z,16.48
2022-10-15T19:07:42.030Z,12.73
2022-10-15T19:10:44.307Z,13.80
2022-10-15T19:13:46.610Z,13.07
2022-10-15T19:16:49.478Z,17.73
2022-10-15T19:19:51.695Z,11.88
2022-10-15T19:22:53.917Z,14.60
2022-10-15T19:25:57.898Z,15.27
2022-10-15T19:29:00.278Z,15.63
2022-10-15T19:32:03.817Z,12.03
2022-10-15T19:35:06.499Z,15.85
2022-10-15T19:38:08.806Z,12.15
2022-10-15T19:41:11.061Z,16.95
2022-10-15T19:44:16.023Z,18.08
2022-10-15T19:47:20.605Z,14.83
2022-10-15T19:50:22.880Z,13.23
2022-10-15T19:53:25.733Z,14.88
2022-10-15T19:56:28.334Z,16.60
2022-10-15T19:59:30.613Z,16.30
2022-10-15T20:02:32.907Z,13.27
2022-10-15T20:05:35.177Z,15.43
2022-10-15T20:08:37.588Z,24.48
2022-10-15T20:11:39.881Z,21.42
2022-10-15T20:14:42.224Z,23.63
2022-10-15T20:17:44.535Z,20.57
2022-10-15T20:20:47.288Z,18.90
2022-10-15T20:23:49.562Z,17.20
2022-10-15T20:26:51.851Z,13.32
2022-10-15T20:29:54.079Z,11.80
2022-10-15T20:32:56.326Z,11.60
2022-10-15T20:36:03.955Z,15.10
2022-10-15T20:39:06.249Z,14.48
2022-10-15T20:42:08.523Z,12.85
2022-10-15T20:45:14.658Z,11.52
2022-10-15T20:48:19.879Z,20.03
2022-10-15T20:51:25.982Z,14.63
2022-10-15T20:54:30.989Z,14.93
2022-10-15T20:57:33.277Z,17.60
2022-10-15T21:00:35.542Z,18.70
2022-10-15T21:03:37.852Z,15.13
2022-10-15T21:06:40.301Z,14.70
2022-10-15T21:09:42.596Z,13.77
2022-10-15T21:12:44.841Z,17.60
2022-10-15T21:15:47.197Z,15.90
2022-10-15T21:18:49.484Z,13.27
2022-10-15T21:21:51.730Z,14.73
2022-10-15T21:24:54.003Z,12.20
2022-10-15T21:27:56.933Z,14.35
2022-10-15T21:30:59.861Z,9.95
2022-10-15T21:34:02.089Z,9.67
2022-10-15T21:37:04.366Z,13.82
2022-10-15T21:40:07.724Z,15.35
2022-10-15T21:43:10.075Z,13.65
2022-10-15T21:46:14.145Z,13.88
2022-10-15T21:49:16.552Z,8.40
2022-10-15T21:52:18.864Z,10.63
2022-10-15T21:55:21.290Z,10.30
2022-10-15T21:58:23.568Z,14.85
2022-10-15T22:01:28.328Z,15.30
2022-10-15T22:04:33.766Z,12.07
2022-10-15T22:07:38.433Z,9.73
2022-10-15T22:10:42.611Z,15.95
2022-10-15T22:13:46.521Z,11.95
2022-10-15T22:16:48.841Z,12.85
2022-10-15T22:19:51.107Z,8.80
2022-10-15T22:22:54.329Z,12.60
2022-10-15T22:25:59.867Z,8.07
2022-10-15T22:29:03.467Z,11.15
2022-10-15T22:32:05.857Z,14.88
2022-10-15T22:35:08.458Z,6.90
2022-10-15T22:38:10.724Z,12.32
2022-10-15T22:41:13.845Z,13.68
2022-10-15T22:44:19.034Z,9.02
2022-10-15T22:47:21.329Z,9.48
2022-10-15T22:50:23.607Z,8.77
2022-10-15T22:53:26.053Z,9.40
2022-10-15T22:56:28.916Z,11.57
2022-10-15T22:59:31.509Z,9.25
2022-10-15T23:02:33.829Z,11.13
2022-10-15T23:05:36.074Z,7.63
2022-10-15T23:08:38.745Z,10.32
2022-10-15T23:11:41.108Z,8.35
2022-10-15T23:14:43.379Z,9.98
2022-10-15T23:17:45.738Z,11.18
2022-10-15T23:20:47.957Z,7.20
2022-10-15T23:23:51.638Z,8.32
2022-10-15T23:26:53.975Z,18.75
2022-10-15T23:30:07.420Z,10.55
2022-10-15T23:33:18.537Z,12.27
2022-10-15T23:36:22.251Z,9.33
2022-10-15T23:39:26.270Z,10.70
2022-10-15T23:42:28.872Z,10.07
2022-10-15T23:45:31.129Z,7.15
2022-10-15T23:48:34.009Z,8.05
2022-10-15T23:51:36.543Z,6.57
2022-10-15T23:54:39.176Z,15.65
2022-10-15T23:57:41.563Z,9.93
